DABC/CZL METAR and TAF weather

Enter ICAO airport designator
Station Type Date Time Source
DABC METAR 2021/01/17 19:00 UTC NOAA

DABC 171900Z VRB02KT CAVOK 07/M01 Q1024


Station Type Date Time Source
DABC Decoded METAR 2021/01/17 19:00 UTC NOAA

Constantine, Algeria (DABC) 36-17N 006-37E 694M
Jan 17, 2021 - 02:00 PM EST / 2021.01.17 1900 UTC
Wind: Variable at 2 MPH (2 KT):0
Visibility: greater than 7 mile(s):0
Temperature: 44 F (7 C)
Dew Point: 30 F (-1 C)
Relative Humidity: 56%
Pressure (altimeter): 30.24 in. Hg (1024 hPa)
ob: DABC 171900Z VRB02KT CAVOK 07/M01 Q1024
cycle: 19

Station Type Date Time Source
DABC TAF 2021/01/17 18:33 UTC NOAA

TAF DABC 171700Z 1718/1818 24010KT 9999 SCT023
BECMG 1720/1722 VRB02KT PROB30
TEMPO 1800/1805 2000 BR BKN008 PROB30
TEMPO 1805/1812 FEW023TCU

Example: see airport list